createdAt,value
2018-06-29T00:01:33.408Z,41.20
2018-06-29T00:04:05.302Z,39.00
2018-06-29T00:06:40.282Z,39.87
2018-06-29T00:09:16.433Z,39.17
2018-06-29T00:11:52.237Z,38.30
2018-06-29T00:14:25.379Z,36.87
2018-06-29T00:17:02.434Z,34.13
2018-06-29T00:19:35.788Z,35.47
2018-06-29T00:22:07.720Z,32.00
2018-06-29T00:24:39.512Z,31.53
2018-06-29T00:27:11.338Z,31.77
2018-06-29T00:29:43.308Z,30.73
2018-06-29T00:32:15.169Z,32.13
2018-06-29T00:34:46.775Z,31.00
2018-06-29T00:37:18.820Z,29.63
2018-06-29T00:39:50.487Z,29.80
2018-06-29T00:42:22.107Z,28.97
2018-06-29T00:44:53.774Z,29.03
2018-06-29T00:47:25.574Z,26.70
2018-06-29T00:49:56.111Z,30.17
2018-06-29T00:52:28.079Z,28.43
2018-06-29T00:54:58.956Z,28.50
2018-06-29T00:57:31.034Z,26.13
2018-06-29T01:00:05.041Z,26.97
2018-06-29T01:02:36.826Z,29.80
2018-06-29T01:05:08.381Z,26.93
2018-06-29T01:07:40.142Z,29.10
2018-06-29T01:10:12.569Z,26.73
2018-06-29T01:12:44.345Z,27.40
2018-06-29T01:15:16.192Z,27.03
2018-06-29T01:17:48.127Z,26.50
2018-06-29T01:20:19.770Z,26.50
2018-06-29T01:22:51.456Z,26.83
2018-06-29T01:25:23.075Z,26.63
2018-06-29T01:27:55.299Z,27.53
2018-06-29T01:30:27.099Z,28.50
2018-06-29T01:32:59.225Z,27.00
2018-06-29T01:35:30.898Z,27.40
2018-06-29T01:38:02.587Z,26.27
2018-06-29T01:40:34.052Z,27.30
2018-06-29T01:43:05.818Z,26.87
2018-06-29T01:45:37.635Z,27.57
2018-06-29T01:48:09.751Z,26.27
2018-06-29T01:50:41.115Z,26.80
2018-06-29T01:53:11.979Z,26.47
2018-06-29T01:55:43.723Z,25.23
2018-06-29T01:58:15.600Z,26.60
2018-06-29T02:00:47.436Z,25.63
2018-06-29T02:03:20.877Z,25.37
2018-06-29T02:05:52.386Z,27.10
2018-06-29T02:08:24.311Z,28.03
2018-06-29T02:10:56.631Z,26.60
2018-06-29T02:13:28.714Z,27.33
2018-06-29T02:16:00.476Z,25.37
2018-06-29T02:18:32.630Z,24.97
2018-06-29T02:21:04.410Z,26.77
2018-06-29T02:23:36.323Z,25.63
2018-06-29T02:26:07.781Z,27.40
2018-06-29T02:28:39.521Z,26.53
2018-06-29T02:31:11.325Z,24.87
2018-06-29T02:33:43.572Z,27.70
2018-06-29T02:36:15.368Z,25.37
2018-06-29T02:38:47.799Z,25.80
2018-06-29T02:41:20.344Z,26.80
2018-06-29T02:43:52.561Z,26.90
2018-06-29T02:46:23.235Z,26.53
2018-06-29T02:48:55.257Z,27.00
2018-06-29T02:51:26.887Z,25.70
2018-06-29T02:53:58.927Z,26.13
2018-06-29T02:56:30.749Z,24.67
2018-06-29T02:59:02.727Z,27.30
2018-06-29T03:01:34.179Z,26.07
2018-06-29T03:04:06.194Z,27.03
2018-06-29T03:06:37.894Z,26.60
2018-06-29T03:09:10.850Z,25.27
2018-06-29T03:11:41.602Z,26.67
2018-06-29T03:14:13.115Z,24.83
2018-06-29T03:16:45.234Z,28.47
2018-06-29T03:19:16.303Z,27.77
2018-06-29T03:21:48.015Z,27.77
2018-06-29T03:24:20.103Z,28.67
2018-06-29T03:26:51.010Z,26.17
2018-06-29T03:29:22.886Z,25.53
2018-06-29T03:31:54.258Z,26.37
2018-06-29T03:34:25.973Z,25.93
2018-06-29T03:36:56.583Z,24.57
2018-06-29T03:39:28.407Z,25.10
2018-06-29T03:42:01.510Z,25.67
2018-06-29T03:44:33.199Z,29.23
2018-06-29T03:47:04.853Z,26.23
2018-06-29T03:49:36.631Z,31.07
2018-06-29T03:52:08.274Z,26.00
2018-06-29T03:54:40.229Z,27.10
2018-06-29T03:57:11.956Z,25.87
2018-06-29T03:59:43.980Z,29.03
2018-06-29T04:02:15.553Z,27.20
2018-06-29T04:04:47.342Z,29.20
2018-06-29T04:07:19.037Z,29.43
2018-06-29T04:09:50.698Z,30.50
2018-06-29T04:12:22.359Z,29.00
2018-06-29T04:14:54.458Z,29.80
2018-06-29T04:17:25.818Z,28.10
2018-06-29T04:19:57.807Z,26.67
2018-06-29T04:22:29.325Z,28.13
2018-06-29T04:25:03.352Z,24.87
2018-06-29T04:27:35.262Z,25.50
2018-06-29T04:30:07.984Z,27.07
2018-06-29T04:32:39.726Z,28.60
2018-06-29T04:35:11.899Z,30.80
2018-06-29T04:37:43.427Z,27.33
2018-06-29T04:40:16.030Z,29.67
2018-06-29T04:42:48.724Z,28.73
2018-06-29T04:45:21.039Z,28.80
2018-06-29T04:47:52.485Z,28.67
2018-06-29T04:50:24.726Z,27.63
2018-06-29T04:52:55.455Z,25.30
2018-06-29T04:55:27.208Z,28.63
2018-06-29T04:57:59.017Z,28.80
2018-06-29T05:00:31.139Z,27.30
2018-06-29T05:03:02.870Z,27.83
2018-06-29T05:05:34.627Z,27.10
2018-06-29T05:08:06.203Z,27.73
2018-06-29T05:10:38.531Z,27.40
2018-06-29T05:13:10.439Z,25.20
2018-06-29T05:15:42.619Z,26.27
2018-06-29T05:18:14.204Z,25.75
2018-06-29T05:20:46.396Z,25.10
2018-06-29T05:23:18.360Z,26.00
2018-06-29T05:25:50.010Z,27.98
2018-06-29T05:28:22.073Z,28.67
2018-06-29T05:30:53.379Z,26.23
2018-06-29T05:33:25.063Z,27.82
2018-06-29T05:35:56.720Z,28.25
2018-06-29T05:38:28.249Z,27.80
2018-06-29T05:41:00.101Z,28.90
2018-06-29T05:43:33.347Z,28.10
2018-06-29T05:46:04.771Z,27.67
2018-06-29T05:48:36.532Z,26.77
2018-06-29T05:51:07.395Z,24.45
2018-06-29T05:53:39.267Z,26.77
2018-06-29T05:56:11.331Z,27.15
2018-06-29T05:58:43.104Z,23.98
2018-06-29T06:01:15.409Z,23.83
2018-06-29T06:03:46.958Z,24.75
2018-06-29T06:06:18.653Z,23.65
2018-06-29T06:08:50.294Z,24.47
2018-06-29T06:11:22.071Z,23.22
2018-06-29T06:13:53.783Z,21.45
2018-06-29T06:16:24.439Z,22.45
2018-06-29T06:19:08.995Z,23.27
2018-06-29T06:21:40.703Z,21.48
2018-06-29T06:24:12.358Z,21.05
2018-06-29T06:26:44.323Z,19.98
2018-06-29T06:29:15.924Z,21.12
2018-06-29T06:31:47.954Z,22.85
2018-06-29T06:34:19.578Z,21.50
2018-06-29T06:36:51.443Z,22.95
2018-06-29T06:39:23.194Z,21.82
2018-06-29T06:41:55.278Z,23.55
2018-06-29T06:44:28.137Z,19.48
2018-06-29T06:47:00.184Z,18.07
2018-06-29T06:49:31.829Z,19.98
2018-06-29T06:52:02.805Z,19.48
2018-06-29T06:54:34.846Z,19.57
2018-06-29T06:57:06.647Z,17.52
2018-06-29T06:59:38.328Z,16.80
2018-06-29T07:02:10.187Z,18.95
2018-06-29T07:04:42.162Z,19.50
2018-06-29T07:07:14.026Z,18.90
2018-06-29T07:09:45.506Z,17.60
2018-06-29T07:12:17.869Z,19.10
2018-06-29T07:14:49.410Z,19.55
2018-06-29T07:17:21.355Z,18.00
2018-06-29T07:19:52.757Z,18.60
2018-06-29T07:22:23.770Z,18.27
2018-06-29T07:24:55.366Z,19.50
2018-06-29T07:27:27.357Z,19.12
2018-06-29T07:29:58.874Z,18.70
2018-06-29T07:32:31.351Z,18.52
2018-06-29T07:35:02.070Z,20.37
2018-06-29T07:37:33.085Z,20.05
2018-06-29T07:40:04.938Z,19.70
2018-06-29T07:42:37.375Z,19.45
2018-06-29T07:45:09.867Z,20.68
2018-06-29T07:47:42.030Z,19.73
2018-06-29T07:50:13.754Z,20.72
2018-06-29T07:52:44.821Z,20.77
2018-06-29T07:55:16.470Z,22.65
2018-06-29T07:57:48.341Z,22.30
2018-06-29T08:00:20.295Z,19.98
2018-06-29T08:02:51.960Z,20.08
2018-06-29T08:05:22.665Z,19.45
2018-06-29T08:07:54.608Z,18.32
2018-06-29T08:10:26.191Z,19.70
2018-06-29T08:12:58.363Z,19.55
2018-06-29T08:15:30.111Z,19.45
2018-06-29T08:18:01.995Z,20.45
2018-06-29T08:20:34.100Z,19.42
2018-06-29T08:23:05.467Z,18.48
2018-06-29T08:25:37.223Z,19.02
2018-06-29T08:28:09.041Z,19.32
2018-06-29T08:30:39.882Z,18.30
2018-06-29T08:33:11.755Z,20.12
2018-06-29T08:35:43.223Z,19.98
2018-06-29T08:38:15.027Z,20.60
2018-06-29T08:40:46.643Z,20.52
2018-06-29T08:43:18.722Z,18.70
2018-06-29T08:45:51.427Z,20.02
2018-06-29T08:48:23.454Z,19.87
2018-06-29T08:50:55.122Z,19.48
2018-06-29T08:53:27.019Z,20.97
2018-06-29T08:55:58.961Z,18.77
2018-06-29T08:58:30.652Z,19.42
2018-06-29T09:01:02.660Z,19.45
2018-06-29T09:03:34.427Z,21.00
2018-06-29T09:06:06.040Z,21.57
2018-06-29T09:08:37.763Z,19.50
2018-06-29T09:11:09.995Z,20.57
2018-06-29T09:13:42.626Z,21.15
2018-06-29T09:16:14.624Z,19.00
2018-06-29T09:18:47.817Z,19.48
2018-06-29T09:21:19.965Z,19.57
2018-06-29T09:23:51.796Z,21.05
2018-06-29T09:26:23.373Z,21.07
2018-06-29T09:28:54.349Z,19.50
2018-06-29T09:31:26.047Z,18.57
2018-06-29T09:33:58.290Z,18.67
2018-06-29T09:36:30.080Z,21.42
2018-06-29T09:39:01.802Z,21.70
2018-06-29T09:41:33.388Z,19.52
2018-06-29T09:44:05.867Z,19.32
2018-06-29T09:46:37.863Z,19.42
2018-06-29T09:49:09.785Z,19.90
2018-06-29T09:51:41.464Z,20.43
2018-06-29T09:54:13.379Z,18.82
2018-06-29T09:56:45.190Z,19.57
2018-06-29T09:59:16.990Z,18.67
2018-06-29T10:01:48.629Z,19.70
2018-06-29T10:04:20.635Z,19.52
2018-06-29T10:06:52.270Z,18.50
2018-06-29T10:09:23.869Z,21.12
2018-06-29T10:11:55.431Z,18.50
2018-06-29T10:14:27.422Z,19.62
2018-06-29T10:16:59.192Z,18.75
2018-06-29T10:19:30.493Z,18.40
2018-06-29T10:22:02.104Z,19.12
2018-06-29T10:24:34.060Z,18.35
2018-06-29T10:27:05.696Z,19.17
2018-06-29T10:29:37.400Z,23.60
2018-06-29T10:32:08.888Z,29.15
2018-06-29T10:34:40.648Z,29.32
2018-06-29T10:37:12.211Z,28.73
2018-06-29T10:39:44.188Z,28.62
2018-06-29T10:42:14.723Z,28.38
2018-06-29T10:44:45.597Z,28.10
2018-06-29T10:47:17.767Z,28.17
2018-06-29T10:49:49.867Z,27.37
2018-06-29T10:52:21.811Z,28.50
2018-06-29T10:54:53.020Z,27.32
2018-06-29T10:57:24.708Z,27.95
2018-06-29T10:59:56.373Z,27.90
2018-06-29T11:02:28.272Z,30.00
2018-06-29T11:04:59.855Z,27.67
2018-06-29T11:07:31.402Z,28.80
2018-06-29T11:10:03.248Z,27.67
2018-06-29T11:12:34.822Z,25.33
2018-06-29T11:15:05.775Z,26.27
2018-06-29T11:17:37.312Z,30.00
2018-06-29T11:20:09.036Z,30.33
2018-06-29T11:22:40.493Z,27.62
2018-06-29T11:25:12.213Z,25.50
2018-06-29T11:27:43.768Z,26.00
2018-06-29T11:30:15.362Z,26.37
2018-06-29T11:32:46.989Z,26.50
2018-06-29T11:35:18.961Z,27.57
2018-06-29T11:37:50.357Z,28.80
2018-06-29T11:40:21.054Z,26.00
2018-06-29T11:42:52.511Z,27.93
2018-06-29T11:45:24.259Z,26.77
2018-06-29T11:47:56.773Z,27.47
2018-06-29T11:50:28.508Z,28.40
2018-06-29T11:53:00.216Z,28.13
2018-06-29T11:55:31.931Z,28.60
2018-06-29T11:58:04.075Z,28.33
2018-06-29T12:00:35.335Z,27.20
2018-06-29T12:03:07.064Z,28.17
2018-06-29T12:05:38.683Z,27.20
2018-06-29T12:08:10.028Z,28.00
2018-06-29T12:10:41.945Z,27.87
2018-06-29T12:13:13.515Z,28.40
2018-06-29T12:15:45.112Z,27.30
2018-06-29T12:18:15.696Z,27.27
2018-06-29T12:20:47.555Z,29.23
2018-06-29T12:23:18.290Z,26.30
2018-06-29T12:25:49.876Z,27.20
2018-06-29T12:28:21.473Z,27.73
2018-06-29T12:30:53.221Z,27.33
2018-06-29T12:33:24.588Z,25.63
2018-06-29T12:35:56.404Z,28.80
2018-06-29T12:38:28.012Z,24.80
2018-06-29T12:40:59.795Z,24.40
2018-06-29T12:43:31.353Z,26.77
2018-06-29T12:46:03.372Z,26.50
2018-06-29T12:48:35.211Z,27.50
2018-06-29T12:51:06.509Z,27.20
2018-06-29T12:53:38.012Z,23.80
2018-06-29T12:56:09.889Z,27.77
2018-06-29T12:58:40.378Z,26.50
2018-06-29T13:01:11.978Z,26.07
2018-06-29T13:03:43.384Z,26.03
2018-06-29T13:06:15.143Z,25.63
2018-06-29T13:08:46.437Z,25.93
2018-06-29T13:11:18.017Z,25.97
2018-06-29T13:13:49.592Z,25.00
2018-06-29T13:16:21.169Z,24.43
2018-06-29T13:18:52.641Z,23.67
2018-06-29T13:21:23.460Z,25.03
2018-06-29T13:23:55.011Z,25.33
2018-06-29T13:26:27.045Z,25.63
2018-06-29T13:28:57.893Z,25.50
2018-06-29T13:31:29.485Z,25.10
2018-06-29T13:34:00.926Z,25.47
2018-06-29T13:36:32.820Z,24.90
2018-06-29T13:39:05.233Z,26.67
2018-06-29T13:41:37.035Z,25.97
2018-06-29T13:44:08.822Z,26.70
2018-06-29T13:46:40.429Z,26.23
2018-06-29T13:49:12.946Z,28.13
2018-06-29T13:51:43.828Z,25.20
2018-06-29T13:54:15.351Z,25.13
2018-06-29T13:56:46.972Z,26.23
2018-06-29T13:59:19.345Z,24.93
2018-06-29T14:01:51.456Z,24.50
2018-06-29T14:04:22.953Z,23.03
2018-06-29T14:06:54.956Z,23.70
2018-06-29T14:09:26.387Z,25.00
2018-06-29T14:12:07.344Z,23.30
2018-06-29T14:14:40.508Z,22.60
2018-06-29T14:17:12.576Z,23.10
2018-06-29T14:19:43.626Z,22.77
2018-06-29T14:22:15.477Z,22.17
2018-06-29T14:24:46.838Z,22.10
2018-06-29T14:27:18.686Z,21.60
2018-06-29T14:29:50.315Z,20.93
2018-06-29T14:32:21.788Z,22.57
2018-06-29T14:35:01.655Z,23.23
2018-06-29T14:37:33.136Z,21.47
2018-06-29T14:40:04.785Z,21.50
2018-06-29T14:42:37.221Z,22.60
2018-06-29T14:45:08.644Z,20.10
2018-06-29T14:47:40.357Z,20.90
2018-06-29T14:50:13.537Z,19.90
2018-06-29T14:52:45.248Z,21.57
2018-06-29T14:55:16.700Z,20.33
2018-06-29T14:57:49.572Z,20.40
2018-06-29T15:00:25.603Z,21.97
2018-06-29T15:05:52.971Z,21.23
2018-06-29T15:08:24.732Z,22.13
2018-06-29T15:10:56.528Z,19.67
2018-06-29T15:13:28.436Z,21.93
2018-06-29T15:15:59.922Z,21.30
2018-06-29T15:18:32.048Z,19.70
2018-06-29T15:21:03.624Z,21.07
2018-06-29T15:23:35.739Z,23.70
2018-06-29T15:26:07.672Z,23.17
2018-06-29T15:28:39.466Z,22.50
2018-06-29T15:31:10.873Z,21.23
2018-06-29T15:33:42.575Z,22.17
2018-06-29T15:36:13.924Z,21.53
2018-06-29T15:38:45.908Z,22.30
2018-06-29T15:41:16.430Z,19.60
2018-06-29T15:43:48.659Z,20.70
2018-06-29T15:46:19.181Z,21.40
2018-06-29T15:48:51.107Z,20.20
2018-06-29T15:51:23.833Z,21.87
2018-06-29T15:53:55.523Z,20.43
2018-06-29T15:56:26.712Z,20.77
2018-06-29T15:58:57.804Z,21.53
2018-06-29T16:01:29.184Z,21.10
2018-06-29T16:03:59.923Z,22.30
2018-06-29T16:06:31.650Z,22.77
2018-06-29T16:09:02.443Z,22.70
2018-06-29T16:11:34.066Z,18.10
2018-06-29T16:14:04.917Z,19.90
2018-06-29T16:16:35.500Z,20.77
2018-06-29T16:19:07.109Z,19.57
2018-06-29T16:21:38.586Z,20.57
2018-06-29T16:24:10.630Z,21.47
2018-06-29T16:26:42.061Z,19.63
2018-06-29T16:29:13.871Z,20.43
2018-06-29T16:31:45.313Z,19.97
2018-06-29T16:34:16.992Z,19.33
2018-06-29T16:36:48.369Z,18.80
2018-06-29T16:39:20.057Z,18.80
2018-06-29T16:41:51.467Z,18.50
2018-06-29T16:44:24.244Z,19.77
2018-06-29T16:46:55.510Z,20.13
2018-06-29T16:49:27.455Z,18.43
2018-06-29T16:52:00.036Z,19.40
2018-06-29T16:54:31.532Z,17.93
2018-06-29T16:57:03.051Z,20.80
2018-06-29T16:59:35.933Z,19.90
2018-06-29T17:02:07.425Z,18.50
2018-06-29T17:04:38.913Z,18.60
2018-06-29T17:07:10.321Z,17.83
2018-06-29T17:09:41.852Z,16.20
2018-06-29T17:12:13.704Z,17.70
2018-06-29T17:14:44.546Z,18.90
2018-06-29T17:17:16.215Z,18.93
2018-06-29T17:19:47.122Z,17.87
2018-06-29T17:22:18.747Z,17.83
2018-06-29T17:24:50.860Z,19.57
2018-06-29T17:27:22.786Z,17.83
2018-06-29T17:29:54.857Z,20.10
2018-06-29T17:32:26.293Z,18.10
2018-06-29T17:34:57.962Z,18.40
2018-06-29T17:37:29.931Z,18.60
2018-06-29T17:40:01.592Z,18.37
2018-06-29T17:42:33.197Z,17.70
2018-06-29T17:45:04.055Z,19.73
2018-06-29T17:47:35.546Z,16.70
2018-06-29T17:50:07.224Z,17.93
2018-06-29T17:52:39.137Z,20.00
2018-06-29T17:55:11.337Z,18.57
2018-06-29T17:57:42.753Z,17.23
2018-06-29T18:00:14.481Z,18.77
2018-06-29T18:02:46.032Z,18.03
2018-06-29T18:05:16.943Z,18.30
2018-06-29T18:07:49.853Z,17.27
2018-06-29T18:10:21.712Z,19.07
2018-06-29T18:12:53.037Z,17.63
2018-06-29T18:15:24.989Z,18.53
2018-06-29T18:17:56.552Z,17.17
2018-06-29T18:20:28.419Z,16.80
2018-06-29T18:23:00.096Z,16.87
2018-06-29T18:25:31.978Z,19.20
2018-06-29T18:28:02.431Z,16.10
2018-06-29T18:30:34.052Z,16.33
2018-06-29T18:33:09.166Z,17.30
2018-06-29T18:35:41.053Z,18.50
2018-06-29T18:38:12.540Z,17.90
2018-06-29T18:40:44.803Z,18.50
2018-06-29T18:43:25.282Z,19.70
2018-06-29T18:45:58.281Z,17.80
2018-06-29T18:48:29.709Z,16.93
2018-06-29T18:51:01.686Z,16.60
2018-06-29T18:53:34.730Z,19.20
2018-06-29T18:56:14.180Z,20.73
2018-06-29T19:01:42.693Z,19.43
2018-06-29T19:04:14.367Z,18.53
2018-06-29T19:06:45.692Z,20.10
2018-06-29T19:09:16.228Z,18.60
2018-06-29T19:11:49.283Z,20.07
2018-06-29T19:14:21.392Z,18.13
2018-06-29T19:16:53.919Z,20.07
2018-06-29T19:19:26.839Z,20.33
2018-06-29T19:21:58.517Z,19.40
2018-06-29T19:24:31.195Z,20.70
2018-06-29T19:27:03.692Z,20.33
2018-06-29T19:29:35.183Z,20.80
2018-06-29T19:32:08.616Z,18.63
2018-06-29T19:34:40.249Z,21.13
2018-06-29T19:37:12.021Z,20.20
2018-06-29T19:39:43.806Z,20.57
2018-06-29T19:42:15.528Z,20.60
2018-06-29T19:44:47.358Z,21.30
2018-06-29T19:47:19.308Z,22.27
2018-06-29T19:49:50.963Z,19.67
2018-06-29T19:52:23.830Z,20.33
2018-06-29T19:54:57.968Z,21.20
2018-06-29T19:57:29.545Z,20.40
2018-06-29T20:00:01.066Z,19.73
2018-06-29T20:02:32.988Z,23.47
2018-06-29T20:05:04.947Z,21.20
2018-06-29T20:07:37.071Z,22.33
2018-06-29T20:10:08.979Z,20.43
2018-06-29T20:12:41.096Z,23.33
2018-06-29T20:15:12.523Z,21.43
2018-06-29T20:17:44.516Z,21.53
2018-06-29T20:20:16.384Z,21.27
2018-06-29T20:22:48.120Z,21.83
2018-06-29T20:25:19.914Z,21.63
2018-06-29T20:27:51.830Z,21.53
2018-06-29T20:30:22.475Z,21.57
2018-06-29T20:32:53.451Z,20.80
2018-06-29T20:35:25.667Z,22.27
2018-06-29T20:37:57.375Z,20.10
2018-06-29T20:40:29.195Z,20.97
2018-06-29T20:43:01.198Z,20.20
2018-06-29T20:45:33.242Z,18.57
2018-06-29T20:48:05.276Z,18.73
2018-06-29T20:50:35.823Z,19.23
2018-06-29T20:53:06.795Z,19.33
2018-06-29T20:55:39.756Z,20.37
2018-06-29T20:58:10.734Z,19.40
2018-06-29T21:00:42.320Z,22.07
2018-06-29T21:03:14.213Z,19.03
2018-06-29T21:05:45.087Z,17.47
2018-06-29T21:08:17.210Z,19.30
2018-06-29T21:10:49.537Z,19.17
2018-06-29T21:13:20.279Z,19.13
2018-06-29T21:15:51.937Z,17.67
2018-06-29T21:18:24.167Z,17.17
2018-06-29T21:20:55.380Z,18.97
2018-06-29T21:23:27.076Z,17.93
2018-06-29T21:25:58.632Z,18.20
2018-06-29T21:28:31.050Z,19.07
2018-06-29T21:31:03.301Z,19.60
2018-06-29T21:33:35.091Z,19.20
2018-06-29T21:36:06.584Z,17.47
2018-06-29T21:38:38.168Z,17.07
2018-06-29T21:41:09.931Z,19.07
2018-06-29T21:43:41.724Z,17.83
2018-06-29T21:46:14.280Z,19.50
2018-06-29T21:48:46.195Z,18.20
2018-06-29T21:51:17.807Z,17.83
2018-06-29T21:53:49.662Z,17.07
2018-06-29T21:56:21.362Z,17.03
2018-06-29T21:58:52.455Z,16.50
2018-06-29T22:01:23.781Z,18.40
2018-06-29T22:03:55.707Z,16.57
2018-06-29T22:06:27.333Z,16.67
2018-06-29T22:08:59.564Z,16.23
2018-06-29T22:11:31.308Z,16.43
2018-06-29T22:14:03.164Z,17.23
2018-06-29T22:16:33.842Z,17.07
2018-06-29T22:19:04.714Z,16.30
2018-06-29T22:21:36.385Z,15.67
2018-06-29T22:24:08.109Z,19.23
2018-06-29T22:26:39.859Z,17.90
2018-06-29T22:29:11.524Z,15.13
2018-06-29T22:31:43.427Z,16.00
2018-06-29T22:34:15.870Z,16.27
2018-06-29T22:36:47.272Z,15.60
2018-06-29T22:39:19.435Z,18.20
2018-06-29T22:41:50.071Z,16.20
2018-06-29T22:44:21.890Z,16.20
2018-06-29T22:46:52.563Z,17.27
2018-06-29T22:49:23.402Z,16.40
2018-06-29T22:51:54.013Z,16.60
2018-06-29T22:54:25.923Z,15.87
2018-06-29T22:56:58.444Z,15.33
2018-06-29T22:59:30.152Z,15.90
2018-06-29T23:02:01.622Z,14.90
2018-06-29T23:04:33.584Z,15.70
2018-06-29T23:07:05.036Z,15.73
2018-06-29T23:09:36.781Z,16.30
2018-06-29T23:12:08.895Z,16.53
2018-06-29T23:14:41.381Z,14.90
2018-06-29T23:17:13.071Z,15.10
2018-06-29T23:19:45.044Z,14.53
2018-06-29T23:22:16.805Z,15.33
2018-06-29T23:24:49.420Z,16.90
2018-06-29T23:27:21.507Z,15.43
2018-06-29T23:29:53.827Z,14.80
2018-06-29T23:32:25.949Z,16.93
2018-06-29T23:34:58.084Z,16.50
2018-06-29T23:37:29.775Z,16.93
2018-06-29T23:40:02.017Z,16.63
2018-06-29T23:42:33.868Z,15.83
2018-06-29T23:45:05.838Z,15.90
2018-06-29T23:47:37.126Z,14.73
2018-06-29T23:50:09.004Z,16.00
2018-06-29T23:52:40.847Z,16.17
2018-06-29T23:55:12.940Z,15.23
2018-06-29T23:57:46.507Z,16.63
